sensor_id;sensor_type;location;lat;lon;timestamp;pressure;altitude;pressure_sealevel;temperature;humidity
57948;BME280;43754;56.992;24.292;2022-08-24T00:00:27;101856.53;;;20.44;100.00
57948;BME280;43754;56.992;24.292;2022-08-24T00:02:59;101850.91;;;20.39;100.00
57948;BME280;43754;56.992;24.292;2022-08-24T00:05:33;101851.56;;;20.35;100.00
57948;BME280;43754;56.992;24.292;2022-08-24T00:08:05;101856.78;;;20.36;100.00
57948;BME280;43754;56.992;24.292;2022-08-24T00:10:37;101855.97;;;20.36;100.00
57948;BME280;43754;56.992;24.292;2022-08-24T00:13:10;101858.03;;;20.40;100.00
57948;BME280;43754;56.992;24.292;2022-08-24T00:15:43;101856.75;;;20.43;100.00
57948;BME280;43754;56.992;24.292;2022-08-24T00:18:15;101860.94;;;20.45;100.00
57948;BME280;43754;56.992;24.292;2022-08-24T00:20:49;101854.22;;;20.48;100.00
57948;BME280;43754;56.992;24.292;2022-08-24T00:23:22;101848.56;;;20.43;100.00
57948;BME280;43754;56.992;24.292;2022-08-24T00:25:55;101859.72;;;20.41;100.00
57948;BME280;43754;56.992;24.292;2022-08-24T00:28:27;101861.34;;;20.42;100.00
57948;BME280;43754;56.992;24.292;2022-08-24T00:30:59;101863.03;;;20.43;100.00
57948;BME280;43754;56.992;24.292;2022-08-24T00:33:32;101866.59;;;20.44;100.00
57948;BME280;43754;56.992;24.292;2022-08-24T00:36:06;101865.75;;;20.43;100.00
57948;BME280;43754;56.992;24.292;2022-08-24T00:38:38;101874.13;;;20.42;100.00
57948;BME280;43754;56.992;24.292;2022-08-24T00:41:14;101871.84;;;20.45;100.00
57948;BME280;43754;56.992;24.292;2022-08-24T00:43:55;101867.63;;;20.49;100.00
57948;BME280;43754;56.992;24.292;2022-08-24T00:46:31;101869.91;;;20.46;100.00
57948;BME280;43754;56.992;24.292;2022-08-24T00:49:10;101870.38;;;20.43;100.00
57948;BME280;43754;56.992;24.292;2022-08-24T00:51:50;101870.59;;;20.41;100.00
57948;BME280;43754;56.992;24.292;2022-08-24T00:54:27;101867.03;;;20.41;100.00
57948;BME280;43754;56.992;24.292;2022-08-24T00:57:04;101871.00;;;20.38;100.00
57948;BME280;43754;56.992;24.292;2022-08-24T00:59:43;101872.03;;;20.44;100.00
57948;BME280;43754;56.992;24.292;2022-08-24T01:02:19;101872.03;;;20.44;100.00
57948;BME280;43754;56.992;24.292;2022-08-24T01:04:55;101880.22;;;20.44;100.00
57948;BME280;43754;56.992;24.292;2022-08-24T01:07:30;101872.03;;;20.44;100.00
57948;BME280;43754;56.992;24.292;2022-08-24T01:10:05;101878.53;;;20.43;100.00
57948;BME280;43754;56.992;24.292;2022-08-24T01:12:42;101872.47;;;20.41;100.00
57948;BME280;43754;56.992;24.292;2022-08-24T01:15:33;101884.41;;;20.40;100.00
57948;BME280;43754;56.992;24.292;2022-08-24T01:18:08;101875.00;;;20.36;100.00
57948;BME280;43754;56.992;24.292;2022-08-24T01:21:06;101870.00;;;20.33;100.00
57948;BME280;43754;56.992;24.292;2022-08-24T01:23:43;101870.00;;;20.33;100.00
57948;BME280;43754;56.992;24.292;2022-08-24T01:26:20;101872.31;;;20.29;100.00
57948;BME280;43754;56.992;24.292;2022-08-24T01:28:56;101878.78;;;20.28;100.00
57948;BME280;43754;56.992;24.292;2022-08-24T01:31:32;101874.63;;;20.32;100.00
57948;BME280;43754;56.992;24.292;2022-08-24T01:34:05;101873.78;;;20.32;100.00
57948;BME280;43754;56.992;24.292;2022-08-24T01:36:40;101871.66;;;20.27;100.00
57948;BME280;43754;56.992;24.292;2022-08-24T01:39:17;101878.16;;;20.26;100.00
57948;BME280;43754;56.992;24.292;2022-08-24T01:41:54;101870.84;;;20.27;100.00
57948;BME280;43754;56.992;24.292;2022-08-24T01:44:28;101866.44;;;20.26;100.00
57948;BME280;43754;56.992;24.292;2022-08-24T01:47:02;101874.00;;;20.24;100.00
57948;BME280;43754;56.992;24.292;2022-08-24T01:49:41;101868.97;;;20.20;100.00
57948;BME280;43754;56.992;24.292;2022-08-24T01:52:16;101875.88;;;20.16;100.00
57948;BME280;43754;56.992;24.292;2022-08-24T01:54:50;101876.97;;;20.15;100.00
57948;BME280;43754;56.992;24.292;2022-08-24T01:57:24;101871.97;;;20.06;100.00
57948;BME280;43754;56.992;24.292;2022-08-24T02:00:00;101870.94;;;20.00;100.00
57948;BME280;43754;56.992;24.292;2022-08-24T02:02:43;101870.75;;;19.95;100.00
57948;BME280;43754;56.992;24.292;2022-08-24T02:05:16;101868.88;;;19.89;100.00
57948;BME280;43754;56.992;24.292;2022-08-24T02:07:50;101878.94;;;19.82;100.00
57948;BME280;43754;56.992;24.292;2022-08-24T02:10:27;101871.41;;;19.84;100.00
57948;BME280;43754;56.992;24.292;2022-08-24T02:12:59;101878.72;;;19.84;100.00
57948;BME280;43754;56.992;24.292;2022-08-24T02:15:35;101877.88;;;19.83;100.00
57948;BME280;43754;56.992;24.292;2022-08-24T02:18:13;101881.44;;;19.84;100.00
57948;BME280;43754;56.992;24.292;2022-08-24T02:20:47;101881.03;;;19.80;100.00
57948;BME280;43754;56.992;24.292;2022-08-24T02:23:20;101882.91;;;19.80;100.00
57948;BME280;43754;56.992;24.292;2022-08-24T02:25:54;101881.66;;;19.82;100.00
57948;BME280;43754;56.992;24.292;2022-08-24T02:28:27;101878.50;;;19.85;100.00
57948;BME280;43754;56.992;24.292;2022-08-24T02:30:59;101879.75;;;19.89;100.00
57948;BME280;43754;56.992;24.292;2022-08-24T02:33:34;101877.25;;;19.88;100.00
57948;BME280;43754;56.992;24.292;2022-08-24T02:36:09;101882.28;;;19.84;100.00
57948;BME280;43754;56.992;24.292;2022-08-24T02:39:00;101876.84;;;19.84;100.00
57948;BME280;43754;56.992;24.292;2022-08-24T02:41:33;101881.84;;;19.87;100.00
57948;BME280;43754;56.992;24.292;2022-08-24T02:44:05;101877.47;;;19.86;100.00
57948;BME280;43754;56.992;24.292;2022-08-24T02:46:38;101874.53;;;19.88;100.00
57948;BME280;43754;56.992;24.292;2022-08-24T02:49:13;101884.38;;;19.89;100.00
57948;BME280;43754;56.992;24.292;2022-08-24T02:51:45;101883.97;;;19.85;100.00
57948;BME280;43754;56.992;24.292;2022-08-24T02:54:23;101882.31;;;19.78;100.00
57948;BME280;43754;56.992;24.292;2022-08-24T02:56:57;101874.75;;;19.80;100.00
57948;BME280;43754;56.992;24.292;2022-08-24T02:59:30;101879.34;;;19.79;100.00
57948;BME280;43754;56.992;24.292;2022-08-24T03:02:02;101879.59;;;19.78;100.00
57948;BME280;43754;56.992;24.292;2022-08-24T03:04:35;101876.63;;;19.79;100.00
57948;BME280;43754;56.992;24.292;2022-08-24T03:07:08;101881.88;;;19.81;100.00
57948;BME280;43754;56.992;24.292;2022-08-24T03:09:40;101879.78;;;19.76;100.00
57948;BME280;43754;56.992;24.292;2022-08-24T03:12:14;101884.19;;;19.77;100.00
57948;BME280;43754;56.992;24.292;2022-08-24T03:14:47;101885.22;;;19.76;100.00
57948;BME280;43754;56.992;24.292;2022-08-24T03:17:20;101888.19;;;19.68;100.00
57948;BME280;43754;56.992;24.292;2022-08-24T03:19:52;101891.31;;;19.71;100.00
57948;BME280;43754;56.992;24.292;2022-08-24T03:22:24;101892.56;;;19.69;100.00
57948;BME280;43754;56.992;24.292;2022-08-24T03:24:57;101896.75;;;19.71;100.00
57948;BME280;43754;56.992;24.292;2022-08-24T03:27:30;101903.03;;;19.72;100.00
57948;BME280;43754;56.992;24.292;2022-08-24T03:30:05;101905.53;;;19.73;100.00
57948;BME280;43754;56.992;24.292;2022-08-24T03:32:38;101902.81;;;19.73;100.00
57948;BME280;43754;56.992;24.292;2022-08-24T03:35:12;101908.25;;;19.67;100.00
57948;BME280;43754;56.992;24.292;2022-08-24T03:37:45;101912.06;;;19.66;100.00
57948;BME280;43754;56.992;24.292;2022-08-24T03:40:19;101913.31;;;19.70;100.00
57948;BME280;43754;56.992;24.292;2022-08-24T03:43:00;101910.16;;;19.73;100.00
57948;BME280;43754;56.992;24.292;2022-08-24T03:45:33;101904.91;;;19.71;100.00
57948;BME280;43754;56.992;24.292;2022-08-24T03:48:06;101909.31;;;19.72;100.00
57948;BME280;43754;56.992;24.292;2022-08-24T03:50:39;101905.75;;;19.72;100.00
57948;BME280;43754;56.992;24.292;2022-08-24T03:53:11;101908.66;;;19.70;100.00
57948;BME280;43754;56.992;24.292;2022-08-24T03:55:43;101919.16;;;19.73;100.00
57948;BME280;43754;56.992;24.292;2022-08-24T03:58:17;101919.13;;;19.80;100.00
57948;BME280;43754;56.992;24.292;2022-08-24T04:00:49;101920.78;;;19.88;100.00
57948;BME280;43754;56.992;24.292;2022-08-24T04:03:22;101923.94;;;19.91;100.00
57948;BME280;43754;56.992;24.292;2022-08-24T04:05:58;101922.47;;;19.95;100.00
57948;BME280;43754;56.992;24.292;2022-08-24T04:08:32;101922.00;;;20.05;100.00
57948;BME280;43754;56.992;24.292;2022-08-24T04:11:09;101927.22;;;20.13;100.00
57948;BME280;43754;56.992;24.292;2022-08-24T04:13:43;101930.34;;;20.16;100.00
57948;BME280;43754;56.992;24.292;2022-08-24T04:16:17;101930.53;;;20.21;100.00
57948;BME280;43754;56.992;24.292;2022-08-24T04:18:57;101929.69;;;20.28;100.00
57948;BME280;43754;56.992;24.292;2022-08-24T04:21:31;101927.59;;;20.30;100.00
57948;BME280;43754;56.992;24.292;2022-08-24T04:24:07;101925.06;;;20.35;100.00
57948;BME280;43754;56.992;24.292;2022-08-24T04:26:40;101920.03;;;20.38;100.00
57948;BME280;43754;56.992;24.292;2022-08-24T04:29:20;101916.47;;;20.44;100.00
57948;BME280;43754;56.992;24.292;2022-08-24T04:31:55;101914.97;;;20.48;100.00
57948;BME280;43754;56.992;24.292;2022-08-24T04:34:30;101923.09;;;20.55;99.99
57948;BME280;43754;56.992;24.292;2022-08-24T04:37:02;101917.00;;;20.59;99.45
57948;BME280;43754;56.992;24.292;2022-08-24T04:39:39;101918.25;;;20.63;99.45
57948;BME280;43754;56.992;24.292;2022-08-24T04:42:24;101924.91;;;20.74;99.07
57948;BME280;43754;56.992;24.292;2022-08-24T04:44:59;101924.66;;;20.82;98.30
57948;BME280;43754;56.992;24.292;2022-08-24T04:47:31;101930.03;;;20.89;97.10
57948;BME280;43754;56.992;24.292;2022-08-24T04:50:04;101931.47;;;20.98;96.81
57948;BME280;43754;56.992;24.292;2022-08-24T04:52:37;101940.03;;;21.01;95.21
57948;BME280;43754;56.992;24.292;2022-08-24T04:55:10;101930.97;;;21.14;95.39
57948;BME280;43754;56.992;24.292;2022-08-24T04:57:42;101928.06;;;21.34;94.42
57948;BME280;43754;56.992;24.292;2022-08-24T05:00:16;101927.31;;;21.51;94.34
57948;BME280;43754;56.992;24.292;2022-08-24T05:02:48;101931.34;;;21.67;92.71
57948;BME280;43754;56.992;24.292;2022-08-24T05:05:21;101929.34;;;21.81;92.17
57948;BME280;43754;56.992;24.292;2022-08-24T05:07:53;101926.66;;;21.99;91.11
57948;BME280;43754;56.992;24.292;2022-08-24T05:10:27;101931.28;;;21.98;90.19
57948;BME280;43754;56.992;24.292;2022-08-24T05:13:05;101935.31;;;22.14;89.28
57948;BME280;43754;56.992;24.292;2022-08-24T05:15:41;101925.28;;;22.26;89.14
57948;BME280;43754;56.992;24.292;2022-08-24T05:18:15;101929.06;;;22.43;88.62
57948;BME280;43754;56.992;24.292;2022-08-24T05:20:50;101931.44;;;22.58;87.24
57948;BME280;43754;56.992;24.292;2022-08-24T05:23:23;101927.47;;;22.72;86.07
57948;BME280;43754;56.992;24.292;2022-08-24T05:26:03;101937.63;;;22.83;84.70
57948;BME280;43754;56.992;24.292;2022-08-24T05:28:36;101930.13;;;22.79;85.64
57948;BME280;43754;56.992;24.292;2022-08-24T05:31:11;101930.38;;;22.89;84.99
57948;BME280;43754;56.992;24.292;2022-08-24T05:33:44;101933.16;;;23.01;84.49
57948;BME280;43754;56.992;24.292;2022-08-24T05:36:18;101930.84;;;23.16;83.41
57948;BME280;43754;56.992;24.292;2022-08-24T05:38:52;101929.78;;;23.28;83.13
57948;BME280;43754;56.992;24.292;2022-08-24T05:41:25;101936.03;;;23.47;82.40
57948;BME280;43754;56.992;24.292;2022-08-24T05:44:04;101930.44;;;23.54;80.66
57948;BME280;43754;56.992;24.292;2022-08-24T05:46:40;101939.25;;;23.56;81.04
57948;BME280;43754;56.992;24.292;2022-08-24T05:49:12;101941.53;;;23.70;80.26
57948;BME280;43754;56.992;24.292;2022-08-24T05:51:44;101934.63;;;23.79;79.95
57948;BME280;43754;56.992;24.292;2022-08-24T05:54:17;101939.00;;;23.80;80.30
57948;BME280;43754;56.992;24.292;2022-08-24T05:57:00;101936.72;;;24.01;79.96
57948;BME280;43754;56.992;24.292;2022-08-24T05:59:46;101929.47;;;24.06;77.76
57948;BME280;43754;56.992;24.292;2022-08-24T06:02:23;101928.53;;;24.12;77.51
57948;BME280;43754;56.992;24.292;2022-08-24T06:04:55;101936.41;;;24.20;77.12
57948;BME280;43754;56.992;24.292;2022-08-24T06:07:27;101932.91;;;24.37;76.69
57948;BME280;43754;56.992;24.292;2022-08-24T06:10:02;101936.22;;;24.50;76.08
57948;BME280;43754;56.992;24.292;2022-08-24T06:12:54;101943.06;;;24.64;76.37
57948;BME280;43754;56.992;24.292;2022-08-24T06:15:27;101941.69;;;24.79;76.25
57948;BME280;43754;56.992;24.292;2022-08-24T06:18:01;101937.28;;;24.78;75.25
57948;BME280;43754;56.992;24.292;2022-08-24T06:20:37;101931.13;;;24.70;74.65
57948;BME280;43754;56.992;24.292;2022-08-24T06:23:10;101932.13;;;24.81;75.77
57948;BME280;43754;56.992;24.292;2022-08-24T06:25:50;101937.97;;;24.85;74.33
57948;BME280;43754;56.992;24.292;2022-08-24T06:28:47;101934.38;;;24.84;74.63
57948;BME280;43754;56.992;24.292;2022-08-24T06:31:20;101943.94;;;24.82;75.13
57948;BME280;43754;56.992;24.292;2022-08-24T06:33:57;101947.69;;;25.04;74.58
57948;BME280;43754;56.992;24.292;2022-08-24T06:36:30;101952.19;;;25.27;73.48
57948;BME280;43754;56.992;24.292;2022-08-24T06:39:02;101951.22;;;25.49;74.02
57948;BME280;43754;56.992;24.292;2022-08-24T06:41:38;101951.25;;;25.66;72.47
57948;BME280;43754;56.992;24.292;2022-08-24T06:44:14;101954.25;;;25.64;71.09
57948;BME280;43754;56.992;24.292;2022-08-24T06:46:54;101953.41;;;25.64;70.78
57948;BME280;43754;56.992;24.292;2022-08-24T06:49:27;101965.88;;;25.72;70.42
57948;BME280;43754;56.992;24.292;2022-08-24T06:52:00;101972.06;;;25.79;69.59
57948;BME280;43754;56.992;24.292;2022-08-24T06:54:32;101957.38;;;25.90;69.69
57948;BME280;43754;56.992;24.292;2022-08-24T06:57:06;101954.03;;;26.04;69.18
57948;BME280;43754;56.992;24.292;2022-08-24T06:59:39;101947.19;;;26.07;68.79
57948;BME280;43754;56.992;24.292;2022-08-24T07:02:14;101949.75;;;26.14;68.59
57948;BME280;43754;56.992;24.292;2022-08-24T07:04:51;101956.97;;;26.36;67.38
57948;BME280;43754;56.992;24.292;2022-08-24T07:07:41;101953.31;;;26.52;67.05
57948;BME280;43754;56.992;24.292;2022-08-24T07:10:13;101957.34;;;26.67;66.60
57948;BME280;43754;56.992;24.292;2022-08-24T07:12:46;101952.78;;;26.77;66.99
57948;BME280;43754;56.992;24.292;2022-08-24T07:15:19;101957.00;;;26.85;64.93
57948;BME280;43754;56.992;24.292;2022-08-24T07:18:04;101960.09;;;26.88;65.45
57948;BME280;43754;56.992;24.292;2022-08-24T07:20:46;101961.25;;;26.92;65.72
57948;BME280;43754;56.992;24.292;2022-08-24T07:23:28;101967.31;;;27.21;63.98
57948;BME280;43754;56.992;24.292;2022-08-24T07:26:19;101963.78;;;27.58;64.07
57948;BME280;43754;56.992;24.292;2022-08-24T07:28:58;101960.22;;;27.57;62.77
57948;BME280;43754;56.992;24.292;2022-08-24T07:31:42;101954.84;;;27.45;62.64
57948;BME280;43754;56.992;24.292;2022-08-24T07:34:32;101959.66;;;27.55;62.43
57948;BME280;43754;56.992;24.292;2022-08-24T07:37:05;101952.88;;;27.73;63.12
57948;BME280;43754;56.992;24.292;2022-08-24T07:39:41;101944.41;;;27.79;61.95
57948;BME280;43754;56.992;24.292;2022-08-24T07:42:15;101954.81;;;27.72;61.77
57948;BME280;43754;56.992;24.292;2022-08-24T07:45:00;101952.78;;;27.58;63.16
57948;BME280;43754;56.992;24.292;2022-08-24T07:47:33;101958.88;;;27.65;62.86
57948;BME280;43754;56.992;24.292;2022-08-24T07:50:25;101962.63;;;27.49;62.82
57948;BME280;43754;56.992;24.292;2022-08-24T07:52:58;101960.78;;;27.59;62.00
57948;BME280;43754;56.992;24.292;2022-08-24T07:55:31;101961.28;;;27.51;62.26
57948;BME280;43754;56.992;24.292;2022-08-24T07:58:04;101964.03;;;27.56;62.74
57948;BME280;43754;56.992;24.292;2022-08-24T08:00:37;101964.94;;;27.62;61.41
57948;BME280;43754;56.992;24.292;2022-08-24T08:03:09;101970.88;;;27.49;62.63
57948;BME280;43754;56.992;24.292;2022-08-24T08:05:43;101964.28;;;27.50;62.12
57948;BME280;43754;56.992;24.292;2022-08-24T08:08:17;101960.69;;;27.49;62.02
57948;BME280;43754;56.992;24.292;2022-08-24T08:10:52;101957.03;;;27.43;61.91
57948;BME280;43754;56.992;24.292;2022-08-24T08:13:26;101958.69;;;27.44;62.24
57948;BME280;43754;56.992;24.292;2022-08-24T08:15:59;101955.88;;;27.66;62.34
57948;BME280;43754;56.992;24.292;2022-08-24T08:18:34;101955.47;;;27.84;60.56
57948;BME280;43754;56.992;24.292;2022-08-24T08:21:12;101950.94;;;28.10;60.19
57948;BME280;43754;56.992;24.292;2022-08-24T08:24:07;101961.91;;;28.57;58.32
57948;BME280;43754;56.992;24.292;2022-08-24T08:26:57;101957.25;;;28.63;59.29
57948;BME280;43754;56.992;24.292;2022-08-24T08:29:32;101955.53;;;28.42;58.76
57948;BME280;43754;56.992;24.292;2022-08-24T08:32:06;101947.66;;;28.18;59.33
57948;BME280;43754;56.992;24.292;2022-08-24T08:34:38;101952.09;;;28.19;60.14
57948;BME280;43754;56.992;24.292;2022-08-24T08:37:12;101960.88;;;28.11;60.97
57948;BME280;43754;56.992;24.292;2022-08-24T08:39:46;101959.34;;;27.88;60.88
57948;BME280;43754;56.992;24.292;2022-08-24T08:45:32;101969.16;;;27.74;61.58
57948;BME280;43754;56.992;24.292;2022-08-24T08:48:55;101963.75;;;27.89;60.26
57948;BME280;43754;56.992;24.292;2022-08-24T08:54:51;101971.03;;;27.69;58.93
57948;BME280;43754;56.992;24.292;2022-08-24T08:57:43;101952.72;;;27.84;59.66
57948;BME280;43754;56.992;24.292;2022-08-24T09:00:19;101960.25;;;28.04;59.31
57948;BME280;43754;56.992;24.292;2022-08-24T09:03:10;101960.13;;;28.21;58.00
57948;BME280;43754;56.992;24.292;2022-08-24T09:06:13;101959.81;;;28.22;59.26
57948;BME280;43754;56.992;24.292;2022-08-24T09:09:02;101962.91;;;28.31;57.08
57948;BME280;43754;56.992;24.292;2022-08-24T09:11:47;101956.34;;;28.42;58.18
57948;BME280;43754;56.992;24.292;2022-08-24T09:14:49;101954.50;;;28.63;57.09
57948;BME280;43754;56.992;24.292;2022-08-24T09:17:53;101964.53;;;28.94;56.85
57948;BME280;43754;56.992;24.292;2022-08-24T09:20:49;101964.59;;;29.19;55.53
57948;BME280;43754;56.992;24.292;2022-08-24T09:23:35;101967.06;;;29.21;55.60
57948;BME280;43754;56.992;24.292;2022-08-24T09:26:18;101965.47;;;29.30;54.08
57948;BME280;43754;56.992;24.292;2022-08-24T09:29:05;101969.34;;;29.34;55.67
57948;BME280;43754;56.992;24.292;2022-08-24T09:31:53;101956.34;;;29.40;55.41
57948;BME280;43754;56.992;24.292;2022-08-24T09:34:35;101954.69;;;29.49;55.72
57948;BME280;43754;56.992;24.292;2022-08-24T09:37:25;101962.69;;;29.50;54.94
57948;BME280;43754;56.992;24.292;2022-08-24T09:40:08;101960.22;;;29.54;55.86
57948;BME280;43754;56.992;24.292;2022-08-24T09:43:39;101963.78;;;29.90;54.40
57948;BME280;43754;56.992;24.292;2022-08-24T09:46:49;101963.25;;;29.62;54.10
57948;BME280;43754;56.992;24.292;2022-08-24T09:49:49;101967.38;;;29.60;54.60
57948;BME280;43754;56.992;24.292;2022-08-24T09:52:50;101974.59;;;29.51;53.91
57948;BME280;43754;56.992;24.292;2022-08-24T09:55:47;101963.78;;;29.90;55.15
57948;BME280;43754;56.992;24.292;2022-08-24T09:58:35;101960.91;;;30.30;54.73
57948;BME280;43754;56.992;24.292;2022-08-24T10:01:21;101951.72;;;30.50;51.81
57948;BME280;43754;56.992;24.292;2022-08-24T10:04:23;101959.94;;;30.65;50.37
57948;BME280;43754;56.992;24.292;2022-08-24T10:07:08;101953.81;;;30.73;51.02
57948;BME280;43754;56.992;24.292;2022-08-24T10:10:02;101951.25;;;30.87;51.60
57948;BME280;43754;56.992;24.292;2022-08-24T10:12:48;101950.88;;;30.98;50.22
57948;BME280;43754;56.992;24.292;2022-08-24T10:15:29;101958.59;;;31.12;50.85
57948;BME280;43754;56.992;24.292;2022-08-24T10:18:19;101956.19;;;30.90;50.71
57948;BME280;43754;56.992;24.292;2022-08-24T10:21:14;101957.00;;;30.51;52.26
57948;BME280;43754;56.992;24.292;2022-08-24T10:24:02;101955.41;;;30.15;54.22
57948;BME280;43754;56.992;24.292;2022-08-24T10:29:46;101948.63;;;30.56;50.72
57948;BME280;43754;56.992;24.292;2022-08-24T10:32:37;101950.06;;;30.54;52.15
57948;BME280;43754;56.992;24.292;2022-08-24T10:35:18;101951.47;;;30.51;52.14
57948;BME280;43754;56.992;24.292;2022-08-24T10:38:11;101958.94;;;30.41;52.11
57948;BME280;43754;56.992;24.292;2022-08-24T10:41:21;101950.38;;;30.47;52.39
57948;BME280;43754;56.992;24.292;2022-08-24T10:44:20;101955.31;;;30.50;52.00
57948;BME280;43754;56.992;24.292;2022-08-24T10:46:58;101956.44;;;30.39;52.63
57948;BME280;43754;56.992;24.292;2022-08-24T10:53:04;101948.69;;;30.51;52.26
57948;BME280;43754;56.992;24.292;2022-08-24T10:55:42;101948.69;;;30.51;52.25
57948;BME280;43754;56.992;24.292;2022-08-24T10:58:50;101945.03;;;30.56;51.44
57948;BME280;43754;56.992;24.292;2022-08-24T11:01:26;101945.63;;;30.48;51.83
57948;BME280;43754;56.992;24.292;2022-08-24T11:04:05;101939.28;;;30.42;51.02
57948;BME280;43754;56.992;24.292;2022-08-24T11:07:05;101935.72;;;30.37;51.28
57948;BME280;43754;56.992;24.292;2022-08-24T11:09:45;101938.47;;;30.47;51.77
57948;BME280;43754;56.992;24.292;2022-08-24T11:12:24;101941.75;;;30.54;54.89
57948;BME280;43754;56.992;24.292;2022-08-24T11:14:58;101931.66;;;30.73;52.16
57948;BME280;43754;56.992;24.292;2022-08-24T11:17:31;101937.69;;;30.85;51.64
57948;BME280;43754;56.992;24.292;2022-08-24T11:20:25;101933.63;;;31.17;51.23
57948;BME280;43754;56.992;24.292;2022-08-24T11:23:01;101937.97;;;31.28;48.55
57948;BME280;43754;56.992;24.292;2022-08-24T11:25:36;101939.63;;;31.63;49.06
57948;BME280;43754;56.992;24.292;2022-08-24T11:28:22;101933.47;;;31.94;49.30
57948;BME280;43754;56.992;24.292;2022-08-24T11:30:56;101941.13;;;32.03;48.88
57948;BME280;43754;56.992;24.292;2022-08-24T11:33:32;101930.66;;;32.23;48.06
57948;BME280;43754;56.992;24.292;2022-08-24T11:36:14;101939.78;;;32.00;47.37
57948;BME280;43754;56.992;24.292;2022-08-24T11:39:10;101932.03;;;32.45;48.80
57948;BME280;43754;56.992;24.292;2022-08-24T11:41:52;101930.66;;;32.47;46.33
57948;BME280;43754;56.992;24.292;2022-08-24T11:44:41;101939.72;;;32.76;47.68
57948;BME280;43754;56.992;24.292;2022-08-24T11:47:21;101937.00;;;32.71;46.23
57948;BME280;43754;56.992;24.292;2022-08-24T11:50:00;101934.38;;;32.80;45.85
57948;BME280;43754;56.992;24.292;2022-08-24T11:52:45;101936.03;;;32.81;46.41
57948;BME280;43754;56.992;24.292;2022-08-24T11:55:28;101933.97;;;32.87;46.26
57948;BME280;43754;56.992;24.292;2022-08-24T11:58:22;101935.63;;;32.88;46.50
57948;BME280;43754;56.992;24.292;2022-08-24T12:01:06;101933.16;;;32.67;45.14
57948;BME280;43754;56.992;24.292;2022-08-24T12:03:47;101933.69;;;32.69;45.28
57948;BME280;43754;56.992;24.292;2022-08-24T12:06:32;101934.16;;;32.76;43.92
57948;BME280;43754;56.992;24.292;2022-08-24T12:09:19;101928.25;;;32.59;44.69
57948;BME280;43754;56.992;24.292;2022-08-24T12:11:59;101928.53;;;32.58;47.05
57948;BME280;43754;56.992;24.292;2022-08-24T12:14:41;101929.75;;;32.52;45.77
57948;BME280;43754;56.992;24.292;2022-08-24T12:17:22;101928.38;;;32.49;46.70
57948;BME280;43754;56.992;24.292;2022-08-24T12:20:00;101928.78;;;32.61;46.22
57948;BME280;43754;56.992;24.292;2022-08-24T12:22:34;101934.41;;;32.56;46.82
57948;BME280;43754;56.992;24.292;2022-08-24T12:25:08;101937.81;;;32.72;46.00
57948;BME280;43754;56.992;24.292;2022-08-24T12:27:59;101937.75;;;32.77;45.96
57948;BME280;43754;56.992;24.292;2022-08-24T12:30:33;101940.53;;;32.77;44.44
57948;BME280;43754;56.992;24.292;2022-08-24T12:33:08;101938.66;;;32.72;44.50
57948;BME280;43754;56.992;24.292;2022-08-24T12:35:45;101923.81;;;32.58;46.33
57948;BME280;43754;56.992;24.292;2022-08-24T12:38:22;101932.28;;;32.48;45.72
57948;BME280;43754;56.992;24.292;2022-08-24T12:41:00;101930.66;;;32.47;45.88
57948;BME280;43754;56.992;24.292;2022-08-24T12:43:52;101930.59;;;32.52;46.57
57948;BME280;43754;56.992;24.292;2022-08-24T12:46:27;101931.22;;;32.44;45.82
57948;BME280;43754;56.992;24.292;2022-08-24T12:49:05;101933.84;;;32.35;45.04
57948;BME280;43754;56.992;24.292;2022-08-24T12:52:01;101934.41;;;32.14;44.64
57948;BME280;43754;56.992;24.292;2022-08-24T12:54:52;101933.63;;;32.03;45.42
57948;BME280;43754;56.992;24.292;2022-08-24T12:57:36;101933.81;;;31.88;45.71
57948;BME280;43754;56.992;24.292;2022-08-24T13:00:31;101937.88;;;31.72;46.43
57948;BME280;43754;56.992;24.292;2022-08-24T13:03:07;101937.25;;;31.80;48.51
57948;BME280;43754;56.992;24.292;2022-08-24T13:05:43;101936.31;;;31.89;47.07
57948;BME280;43754;56.992;24.292;2022-08-24T13:08:21;101931.75;;;31.99;46.43
57948;BME280;43754;56.992;24.292;2022-08-24T13:11:05;101928.84;;;32.14;43.20
57948;BME280;43754;56.992;24.292;2022-08-24T13:13:45;101928.72;;;32.24;42.63
57948;BME280;43754;56.992;24.292;2022-08-24T13:17:07;101935.47;;;32.18;43.93
57948;BME280;43754;56.992;24.292;2022-08-24T13:19:43;101935.13;;;31.95;43.24
57948;BME280;43754;56.992;24.292;2022-08-24T13:22:44;101942.56;;;31.76;43.52
57948;BME280;43754;56.992;24.292;2022-08-24T13:25:23;101941.53;;;31.67;43.70
57948;BME280;43754;56.992;24.292;2022-08-24T13:28:05;101945.53;;;31.56;46.05
57948;BME280;43754;56.992;24.292;2022-08-24T13:31:10;101940.28;;;31.49;45.76
57948;BME280;43754;56.992;24.292;2022-08-24T13:33:45;101946.19;;;31.38;49.88
57948;BME280;43754;56.992;24.292;2022-08-24T13:37:00;101936.66;;;31.49;52.09
57948;BME280;43754;56.992;24.292;2022-08-24T13:39:52;101938.31;;;31.50;53.06
57948;BME280;43754;56.992;24.292;2022-08-24T13:43:05;101948.34;;;31.46;53.69
57948;BME280;43754;56.992;24.292;2022-08-24T13:45:45;101942.13;;;31.30;54.84
57948;BME280;43754;56.992;24.292;2022-08-24T13:48:28;101952.03;;;30.97;56.05
57948;BME280;43754;56.992;24.292;2022-08-24T13:51:23;101951.91;;;30.69;57.49